Antonito, Colorado
Current Conditions -  °F | °C
As of 8:52 AM on Friday 24 Oct 2014 (Local Time) from KALS Reporting Station
Clear Clear  
Wind Chill: 41°   Ceiling: Unl
Heat Index: 41°   Visibility: 10mi
Dew Point: 29°   Wind: 0mph
Humidity: 62%   Direction: NA
Pressure: 30.44"   Gusts: NA
Location:  37.08°N, 106.01°W
Report Text: KALS 241452Z AUTO 00000KT 10SM CLR 05/M02 A3044 RMK AO2 SLP280 T00501017 53014
Loading
Personal Weather Stations






























Interactive Weather Map
Tropical Storm Tracking
New forecast layout! Learn more

10-Day Weather Forecast

Advertisements
Track Severe Weather on mobile